createdAt,value
2023-05-25T00:01:16.189Z,11.90
2023-05-25T00:06:18.267Z,11.27
2023-05-25T00:11:23.326Z,12.00
2023-05-25T00:16:25.087Z,13.00
2023-05-25T00:21:27.462Z,11.90
2023-05-25T00:26:30.533Z,11.43
2023-05-25T00:31:36.585Z,11.97
2023-05-25T00:36:38.408Z,11.50
2023-05-25T00:41:41.764Z,11.27
2023-05-25T00:46:49.783Z,11.33
2023-05-25T00:51:52.095Z,10.87
2023-05-25T00:56:56.679Z,11.60
2023-05-25T01:01:59.287Z,11.50
2023-05-25T01:07:01.205Z,11.83
2023-05-25T01:12:05.910Z,11.60
2023-05-25T01:17:07.997Z,12.00
2023-05-25T01:22:12.975Z,12.13
2023-05-25T01:27:17.108Z,11.23
2023-05-25T01:32:19.020Z,11.80
2023-05-25T01:37:24.478Z,11.30
2023-05-25T01:42:26.219Z,11.30
2023-05-25T01:47:30.742Z,11.50
2023-05-25T01:52:35.829Z,12.57
2023-05-25T01:57:41.467Z,12.80
2023-05-25T02:02:44.781Z,10.10
2023-05-25T02:07:47.974Z,10.30
2023-05-25T02:12:49.740Z,9.53
2023-05-25T02:17:51.546Z,9.90
2023-05-25T02:22:54.756Z,12.43
2023-05-25T02:27:56.503Z,11.90
2023-05-25T02:32:58.315Z,13.10
2023-05-25T02:38:01.759Z,14.37
2023-05-25T02:43:03.628Z,14.00
2023-05-25T02:48:05.484Z,14.03
2023-05-25T02:53:11.043Z,13.53
2023-05-25T02:58:13.258Z,15.20
2023-05-25T03:03:34.966Z,16.07
2023-05-25T03:08:38.082Z,16.50
2023-05-25T03:13:39.815Z,16.77
2023-05-25T03:18:41.658Z,14.80
2023-05-25T03:23:45.018Z,14.10
2023-05-25T03:28:46.791Z,13.20
2023-05-25T03:33:48.637Z,13.90
2023-05-25T03:38:52.675Z,13.23
2023-05-25T03:43:54.871Z,13.10
2023-05-25T03:48:56.707Z,14.87
2023-05-25T03:53:59.817Z,14.73
2023-05-25T03:59:01.627Z,14.60
2023-05-25T04:04:03.487Z,14.23
2023-05-25T04:09:06.669Z,14.30
2023-05-25T04:14:08.598Z,14.90
2023-05-25T04:19:13.645Z,14.53
2023-05-25T04:24:16.745Z,15.70
2023-05-25T04:29:18.663Z,15.40
2023-05-25T04:34:36.437Z,15.10
2023-05-25T04:39:50.309Z,15.93
2023-05-25T04:44:55.866Z,17.13
2023-05-25T04:49:58.332Z,14.87
2023-05-25T04:55:02.854Z,17.07
2023-05-25T05:00:10.861Z,15.70
2023-05-25T05:05:13.925Z,15.90
2023-05-25T05:10:17.767Z,15.33
2023-05-25T05:15:23.844Z,17.07
2023-05-25T05:20:25.979Z,18.23
2023-05-25T05:25:29.955Z,18.27
2023-05-25T05:30:32.597Z,17.10
2023-05-25T05:35:34.447Z,18.23
2023-05-25T05:40:44.057Z,17.70
2023-05-25T05:45:45.942Z,18.40
2023-05-25T05:50:48.062Z,18.40
2023-05-25T05:55:56.059Z,18.70
2023-05-25T06:00:59.971Z,18.83
2023-05-25T06:06:02.247Z,19.63
2023-05-25T06:11:05.575Z,18.93
2023-05-25T06:16:07.735Z,16.40
2023-05-25T06:21:10.811Z,15.40
2023-05-25T06:26:15.888Z,14.93
2023-05-25T06:31:17.865Z,14.60
2023-05-25T06:36:19.940Z,12.67
2023-05-25T06:41:23.242Z,12.53
2023-05-25T06:46:25.041Z,12.53
2023-05-25T06:51:29.876Z,11.47
2023-05-25T06:56:32.882Z,12.80
2023-05-25T07:01:34.603Z,13.00
2023-05-25T07:06:36.505Z,14.03
2023-05-25T07:11:39.650Z,14.17
2023-05-25T07:16:41.569Z,15.30
2023-05-25T07:21:43.419Z,13.90
2023-05-25T07:26:46.543Z,15.47
2023-05-25T07:31:48.903Z,15.43
2023-05-25T07:36:50.813Z,15.10
2023-05-25T07:41:53.896Z,15.27
2023-05-25T07:46:55.662Z,14.43
2023-05-25T07:51:57.441Z,13.30
2023-05-25T07:57:01.187Z,13.60
2023-05-25T08:02:03.030Z,12.90
2023-05-25T08:07:04.979Z,12.60
2023-05-25T08:12:30.701Z,13.37
2023-05-25T08:17:29.814Z,14.50
2023-05-25T08:22:31.526Z,13.70
2023-05-25T08:27:35.962Z,15.37
2023-05-25T08:32:38.045Z,15.37
2023-05-25T08:37:40.059Z,16.40
2023-05-25T08:42:43.538Z,19.53
2023-05-25T08:47:45.630Z,16.60
2023-05-25T08:52:47.538Z,15.93
2023-05-25T08:57:53.530Z,16.10
2023-05-25T09:02:58.448Z,15.77
2023-05-25T09:08:00.188Z,15.47
2023-05-25T09:13:19.074Z,15.63
2023-05-25T09:18:22.036Z,15.50
2023-05-25T09:23:23.794Z,14.60
2023-05-25T09:28:27.805Z,14.60
2023-05-25T09:33:29.680Z,15.37
2023-05-25T09:38:31.501Z,15.33
2023-05-25T09:43:44.723Z,14.23
2023-05-25T09:48:51.416Z,13.90
2023-05-25T09:53:53.150Z,13.30
2023-05-25T09:58:56.285Z,13.37
2023-05-25T10:04:04.405Z,12.63
2023-05-25T10:09:06.783Z,13.20
2023-05-25T10:14:09.884Z,12.47
2023-05-25T10:19:16.108Z,11.57
2023-05-25T10:24:21.277Z,12.37
2023-05-25T10:29:24.977Z,11.20
2023-05-25T10:34:26.863Z,11.47
2023-05-25T10:39:28.671Z,11.67
2023-05-25T10:44:31.698Z,11.20
2023-05-25T10:49:33.679Z,11.00
2023-05-25T10:54:36.372Z,9.87
2023-05-25T10:59:45.050Z,10.40
2023-05-25T11:04:47.989Z,11.27
2023-05-25T11:09:57.799Z,9.80
2023-05-25T11:15:15.580Z,9.83
2023-05-25T11:20:26.066Z,12.13
2023-05-25T11:25:42.402Z,10.57
2023-05-25T11:30:45.659Z,10.30
2023-05-25T11:35:50.022Z,9.60
2023-05-25T11:40:51.944Z,8.93
2023-05-25T11:45:56.966Z,8.23
2023-05-25T11:51:05.292Z,8.93
2023-05-25T11:56:08.318Z,8.00
2023-05-25T12:01:15.653Z,7.27
2023-05-25T12:06:26.932Z,6.97
2023-05-25T12:11:28.964Z,7.10
2023-05-25T12:16:32.042Z,7.30
2023-05-25T12:21:33.816Z,6.77
2023-05-25T12:26:35.885Z,7.33
2023-05-25T12:31:40.115Z,7.03
2023-05-25T12:36:44.507Z,6.73
2023-05-25T12:41:47.535Z,6.60
2023-05-25T12:46:51.151Z,6.80
2023-05-25T12:51:52.973Z,7.40
2023-05-25T12:56:54.913Z,7.00
2023-05-25T13:01:58.037Z,6.27
2023-05-25T13:06:59.761Z,6.20
2023-05-25T13:12:02.674Z,6.70
2023-05-25T13:17:05.956Z,5.53
2023-05-25T13:22:07.728Z,6.03
2023-05-25T13:27:09.513Z,5.67
2023-05-25T13:32:12.746Z,6.03
2023-05-25T13:37:15.297Z,6.00
2023-05-25T13:42:17.656Z,5.83
2023-05-25T13:47:20.795Z,5.87
2023-05-25T13:52:22.611Z,6.30
2023-05-25T13:57:24.361Z,6.40
2023-05-25T14:02:27.464Z,6.70
2023-05-25T14:07:29.241Z,5.80
2023-05-25T14:12:31.347Z,6.30
2023-05-25T14:17:34.483Z,6.03
2023-05-25T14:22:36.235Z,5.80
2023-05-25T14:27:37.949Z,5.77
2023-05-25T14:32:40.996Z,5.23
2023-05-25T14:37:43.850Z,5.07
2023-05-25T14:42:45.602Z,4.63
2023-05-25T14:47:49.044Z,5.57
2023-05-25T14:52:50.902Z,4.30
2023-05-25T14:57:52.677Z,4.97
2023-05-25T15:02:55.843Z,4.30
2023-05-25T15:07:58.863Z,4.97
2023-05-25T15:13:00.687Z,5.23
2023-05-25T15:18:03.925Z,4.30
2023-05-25T15:23:05.834Z,5.00
2023-05-25T15:28:07.647Z,5.20
2023-05-25T15:33:12.612Z,4.20
2023-05-25T15:38:14.528Z,4.50
2023-05-25T15:43:16.230Z,4.80
2023-05-25T15:48:19.401Z,4.67
2023-05-25T15:53:21.220Z,4.60
2023-05-25T15:58:22.926Z,4.80
2023-05-25T16:03:35.425Z,5.37
2023-05-25T16:08:41.601Z,5.53
2023-05-25T16:13:43.512Z,4.97
2023-05-25T16:18:46.607Z,5.43
2023-05-25T16:23:48.293Z,5.20
2023-05-25T16:28:50.025Z,5.37
2023-05-25T16:33:53.109Z,5.80
2023-05-25T16:38:54.876Z,5.17
2023-05-25T16:43:56.619Z,5.40
2023-05-25T16:48:59.727Z,5.67
2023-05-25T16:54:01.466Z,5.80
2023-05-25T16:59:03.276Z,5.50
2023-05-25T17:04:06.531Z,7.30
2023-05-25T17:09:09.083Z,5.60
2023-05-25T17:14:10.766Z,6.43
2023-05-25T17:19:15.050Z,7.07
2023-05-25T17:24:18.116Z,7.10
2023-05-25T17:29:20.242Z,6.50
2023-05-25T17:34:23.346Z,7.10
2023-05-25T17:39:25.144Z,8.47
2023-05-25T17:44:27.017Z,11.10
2023-05-25T17:49:30.110Z,6.23
2023-05-25T17:54:31.890Z,6.70
2023-05-25T17:59:33.644Z,7.20
2023-05-25T18:04:36.805Z,6.10
2023-05-25T18:09:38.584Z,6.73
2023-05-25T18:14:40.349Z,6.83
2023-05-25T18:19:43.429Z,6.53
2023-05-25T18:24:45.294Z,6.40
2023-05-25T18:29:47.034Z,5.43
2023-05-25T18:34:50.104Z,6.27
2023-05-25T18:39:51.912Z,6.57
2023-05-25T18:44:53.628Z,6.60
2023-05-25T18:49:56.964Z,6.83
2023-05-25T18:54:58.849Z,6.83
2023-05-25T19:00:00.947Z,8.07
2023-05-25T19:05:04.497Z,6.30
2023-05-25T19:10:07.151Z,6.63
2023-05-25T19:15:10.146Z,7.73
2023-05-25T19:20:13.648Z,7.53
2023-05-25T19:25:15.512Z,7.20
2023-05-25T19:30:17.425Z,6.60
2023-05-25T19:35:20.593Z,7.83
2023-05-25T19:40:22.285Z,7.13
2023-05-25T19:45:24.145Z,7.60
2023-05-25T19:50:30.489Z,7.67
2023-05-25T19:55:32.283Z,7.73
2023-05-25T20:00:34.006Z,8.30
2023-05-25T20:05:37.136Z,9.00
2023-05-25T20:10:39.631Z,8.03
2023-05-25T20:15:41.633Z,7.70
2023-05-25T20:20:45.003Z,8.27
2023-05-25T20:25:47.213Z,7.97
2023-05-25T20:30:49.241Z,8.53
2023-05-25T20:35:52.336Z,9.47
2023-05-25T20:40:54.026Z,8.47
2023-05-25T20:45:55.765Z,8.27
2023-05-25T20:51:19.151Z,8.23
2023-05-25T20:56:21.467Z,8.03
2023-05-25T21:01:23.349Z,8.40
2023-05-25T21:06:26.474Z,8.90
2023-05-25T21:11:28.723Z,8.30
2023-05-25T21:16:30.838Z,7.53
2023-05-25T21:21:34.079Z,8.63
2023-05-25T21:26:35.855Z,8.10
2023-05-25T21:31:37.879Z,8.10
2023-05-25T21:36:41.022Z,7.87
2023-05-25T21:41:42.826Z,8.67
2023-05-25T21:46:44.616Z,7.47
2023-05-25T21:51:47.718Z,8.17
2023-05-25T21:56:49.598Z,7.63
2023-05-25T22:01:51.527Z,6.77
2023-05-25T22:06:56.670Z,7.33
2023-05-25T22:11:58.470Z,7.50
2023-05-25T22:17:00.402Z,7.73
2023-05-25T22:22:03.945Z,8.17
2023-05-25T22:27:06.046Z,9.10
2023-05-25T22:32:08.837Z,8.60
2023-05-25T22:37:12.006Z,7.60
2023-05-25T22:42:13.857Z,7.70
2023-05-25T22:47:15.588Z,8.07
2023-05-25T22:52:18.935Z,7.57
2023-05-25T22:57:20.676Z,6.77
2023-05-25T23:02:22.398Z,8.17
2023-05-25T23:07:25.515Z,7.57
2023-05-25T23:12:27.190Z,7.30
2023-05-25T23:17:29.027Z,7.47
2023-05-25T23:22:32.123Z,7.53
2023-05-25T23:27:33.826Z,7.93
2023-05-25T23:32:36.155Z,7.30
2023-05-25T23:37:39.337Z,8.00
2023-05-25T23:42:43.354Z,7.60
2023-05-25T23:47:45.161Z,8.10
2023-05-25T23:52:48.216Z,7.47
2023-05-25T23:57:49.938Z,6.43
